Mercury — 3FFC7 — position and weather

sailwx.info

Track history (hours):
 
Tides and Currents Weather Stations Pressure Air Temp Water Temp Dewpoint Dewpoint Depression Visibility Wind Speed Wind Dir Waves Ship Positions

Mercury

Operator: Royal Caribbean Cruises Ltd

Last reported at 2017-May-25 10:29 UTC. Time now 2017-May-25 10:37 UTC.
Position N 34°02' E 134°58'.

Length 199 m; draft 7.9 m.

Type: Cargo ship. MMSI: 371862000.

Date/timePositionNaut miles runAvg speedWind from/ knotsBaromVisibWave heightAir tempDewpointWater temp
2017-May-25 10:29N 34°02' E 134°58'613.4
2017-May-25 10:01N 34°08' E 134°58'612.6
2017-May-25 09:30N 34°15' E 134°58'712.7
2017-May-25 08:58N 34°21' E 135°00'715.8
2017-May-25 08:30N 34°27' E 135°06'917.1
2017-May-25 08:00N 34°33' E 135°13'714.5
2017-May-25 07:30N 34°39' E 135°18'2 4.9
2017-May-25 07:00N 34°41' E 135°17'0 0.1
2017-May-25 06:30N 34°42' E 135°17'0 0.0
2017-May-25 06:00N 34°42' E 135°17'0 0.0
2017-May-25 05:30N 34°42' E 135°17'0 0.0
2017-May-25 05:00N 34°42' E 135°17'0 0.0
2017-May-25 04:30N 34°42' E 135°17'0 0.0
2017-May-25 04:00N 34°42' E 135°17'0 0.0
2017-May-25 03:30N 34°42' E 135°17'0 0.0
2017-May-25 02:54N 34°42' E 135°17'0 0.0
2017-May-25 02:24N 34°42' E 135°17'0 0.0
2017-May-25 02:00N 34°42' E 135°17'0 0.0
2017-May-25 01:30N 34°42' E 135°17'0 0.0
2017-May-25 01:00N 34°42' E 135°17'0 0.0
2017-May-25 00:30N 34°42' E 135°17'0 0.0
2017-May-24 23:48N 34°42' E 135°17'0 0.0
2017-May-24 23:30N 34°42' E 135°17'0 0.0
2017-May-24 22:54N 34°42' E 135°17'0 0.0
2017-May-24 22:30N 34°42' E 135°17'0 0.0
2017-May-24 22:00N 34°42' E 135°17'0 0.0
2017-May-24 21:18N 34°42' E 135°17'0 0.0
2017-May-24 21:00N 34°42' E 135°17'0 0.0
2017-May-24 20:30N 34°42' E 135°17'0 0.0
2017-May-24 20:00N 34°42' E 135°17'0 0.0
2017-May-24 19:24N 34°42' E 135°17'0 0.0
2017-May-24 19:00N 34°42' E 135°17'0 0.0
2017-May-24 18:30N 34°42' E 135°17'0 0.0
2017-May-24 18:00N 34°42' E 135°17'0 0.0
2017-May-24 17:30N 34°42' E 135°17'0 0.0
2017-May-24 17:00N 34°42' E 135°17'0 0.0
2017-May-24 16:30N 34°42' E 135°17'0 0.0
2017-May-24 16:00N 34°42' E 135°17'0 0.0
2017-May-24 15:30N 34°42' E 135°17'0 0.0
2017-May-24 14:54N 34°42' E 135°17'0 0.0
2017-May-24 14:24N 34°42' E 135°17'0 0.0
2017-May-24 13:30N 34°42' E 135°17'0 0.0
2017-May-24 13:00N 34°42' E 135°17'0 0.0
2017-May-24 12:24N 34°42' E 135°17'0 0.0
2017-May-24 11:54N 34°42' E 135°17'0 0.0
2017-May-24 11:30N 34°42' E 135°17'0 0.0
2017-May-24 10:48N 34°42' E 135°17'0 0.0
2017-May-24 10:24N 34°42' E 135°17'0 0.0
2017-May-24 10:00N 34°42' E 135°17'0 0.0
2017-May-24 09:30N 34°42' E 135°17'0 0.0
2017-May-24 09:00N 34°42' E 135°17'0 0.0
2017-May-24 08:30N 34°42' E 135°17'0 0.0
2017-May-24 08:00N 34°42' E 135°17'0 0.0
2017-May-24 07:30N 34°42' E 135°17'0 0.0
2017-May-24 07:00N 34°42' E 135°17'0 0.0
2017-May-24 06:30N 34°42' E 135°17'0 0.0
2017-May-24 06:00N 34°42' E 135°17'0 0.0
2017-May-24 05:24N 34°42' E 135°17'0 0.0
2017-May-24 04:48N 34°42' E 135°17'0 0.0
2017-May-24 04:30N 34°42' E 135°17'0 0.0
2017-May-24 04:00N 34°42' E 135°17'0 0.0
2017-May-24 03:30N 34°42' E 135°17'0 0.0
2017-May-24 03:00N 34°42' E 135°17'0 0.0
2017-May-24 02:24N 34°42' E 135°17'0 0.0
2017-May-24 02:00N 34°42' E 135°17'0 0.0
2017-May-24 01:30N 34°42' E 135°17'0 0.3
2017-May-24 01:00N 34°41' E 135°17'3 5.0
2017-May-24 00:30N 34°39' E 135°18'510.1
2017-May-24 00:00N 34°35' E 135°15'611.8
2017-May-23 23:31N 34°31' E 135°11'815.7
2017-May-23 23:01N 34°25' E 135°05'917.0
2017-May-23 22:31N 34°17' E 134°59'713.1
2017-May-23 22:00N 34°11' E 134°60'4 8.1
2017-May-23 21:30N 34°07' E 134°59'4 8.9
2017-May-23 21:00N 34°02' E 134°58'611.3
2017-May-23 20:29N 33°57' E 134°57'  
2017-May-16 12:22N 34°53' E 140°14'2611.6
2017-May-16 10:06N 34°57' E 139°42'813.7
2017-May-16 09:30N 35°05' E 139°43'613.3
2017-May-16 09:00N 35°11' E 139°46'5 9.3
2017-May-16 08:30N 35°16' E 139°46'611.9
2017-May-16 08:00N 35°21' E 139°42'713.6
2017-May-16 07:31N 35°27' E 139°47'715.0
2017-May-16 07:01N 35°31' E 139°54'714.3
2017-May-16 06:30N 35°35' E 140°02'3 5.7
2017-May-16 05:59N 35°36' E 140°06'0 0.0
2017-May-16 05:29N 35°36' E 140°06'0 0.0
2017-May-16 04:56N 35°36' E 140°06'0 0.0
2017-May-16 04:26N 35°36' E 140°06'0 0.0
2017-May-16 03:59N 35°36' E 140°06'0 0.0
2017-May-16 03:29N 35°36' E 140°06'0 0.0
2017-May-16 02:59N 35°36' E 140°06'0 0.0
2017-May-16 02:26N 35°36' E 140°06'0 0.0
2017-May-16 01:56N 35°36' E 140°06'0 0.0
2017-May-16 01:29N 35°36' E 140°06'0 0.0
2017-May-16 00:44N 35°36' E 140°06'0 0.0
2017-May-16 00:29N 35°36' E 140°06'0 0.0
2017-May-15 23:53N 35°36' E 140°06'0 0.0
2017-May-15 23:26N 35°36' E 140°06'0 0.0
2017-May-15 22:56N 35°36' E 140°06'0 0.4
2017-May-15 22:30N 35°36' E 140°06'2 3.3
2017-May-15 22:00N 35°35' E 140°04'5 9.7
2017-May-15 21:30N 35°33' E 139°58'611.1
2017-May-15 21:00N 35°29' E 139°53'612.7
2017-May-15 20:30N 35°25' E 139°47'612.3
2017-May-15 20:00N 35°20' E 139°44'611.5
2017-May-15 19:30N 35°14' E 139°47'510.3
2017-May-15 19:00N 35°09' E 139°47'4 7.6
2017-May-15 18:30N 35°05' E 139°46'510.9
2017-May-15 18:00N 35°00' E 139°43'815.3
2017-May-15 17:31N 34°53' E 139°42'914.2
2017-May-15 16:54N 34°50' E 139°52'716.1
2017-May-15 16:29N 34°51' E 139°60'1016.1
2017-May-15 15:51N 34°54' E 140°12'  
Track history (hours):
 
Tides and Currents Weather Stations Pressure Air Temp Water Temp Dewpoint Dewpoint Depression Visibility Wind Speed Wind Dir Waves Ship Positions

Mercury

Operator: Royal Caribbean Cruises Ltd

Last reported at 2017-May-25 10:29 UTC. Time now 2017-May-25 10:37 UTC.
Position N 34°02' E 134°58'.

Length 199 m; draft 7.9 m.

Type: Cargo ship. MMSI: 371862000.

Date/timePositionNaut miles runAvg speedWind from/ knotsBaromVisibWave heightAir tempDewpointWater temp
2017-May-25 10:29N 34°02' E 134°58'613.4
2017-May-25 10:01N 34°08' E 134°58'612.6
2017-May-25 09:30N 34°15' E 134°58'712.7
2017-May-25 08:58N 34°21' E 135°00'715.8
2017-May-25 08:30N 34°27' E 135°06'917.1
2017-May-25 08:00N 34°33' E 135°13'714.5
2017-May-25 07:30N 34°39' E 135°18'2 4.9
2017-May-25 07:00N 34°41' E 135°17'0 0.1
2017-May-25 06:30N 34°42' E 135°17'0 0.0
2017-May-25 06:00N 34°42' E 135°17'0 0.0
2017-May-25 05:30N 34°42' E 135°17'0 0.0
2017-May-25 05:00N 34°42' E 135°17'0 0.0
2017-May-25 04:30N 34°42' E 135°17'0 0.0
2017-May-25 04:00N 34°42' E 135°17'0 0.0
2017-May-25 03:30N 34°42' E 135°17'0 0.0
2017-May-25 02:54N 34°42' E 135°17'0 0.0
2017-May-25 02:24N 34°42' E 135°17'0 0.0
2017-May-25 02:00N 34°42' E 135°17'0 0.0
2017-May-25 01:30N 34°42' E 135°17'0 0.0
2017-May-25 01:00N 34°42' E 135°17'0 0.0
2017-May-25 00:30N 34°42' E 135°17'0 0.0
2017-May-24 23:48N 34°42' E 135°17'0 0.0
2017-May-24 23:30N 34°42' E 135°17'0 0.0
2017-May-24 22:54N 34°42' E 135°17'0 0.0
2017-May-24 22:30N 34°42' E 135°17'0 0.0
2017-May-24 22:00N 34°42' E 135°17'0 0.0
2017-May-24 21:18N 34°42' E 135°17'0 0.0
2017-May-24 21:00N 34°42' E 135°17'0 0.0
2017-May-24 20:30N 34°42' E 135°17'0 0.0
2017-May-24 20:00N 34°42' E 135°17'0 0.0
2017-May-24 19:24N 34°42' E 135°17'0 0.0
2017-May-24 19:00N 34°42' E 135°17'0 0.0
2017-May-24 18:30N 34°42' E 135°17'0 0.0
2017-May-24 18:00N 34°42' E 135°17'0 0.0
2017-May-24 17:30N 34°42' E 135°17'0 0.0
2017-May-24 17:00N 34°42' E 135°17'0 0.0
2017-May-24 16:30N 34°42' E 135°17'0 0.0
2017-May-24 16:00N 34°42' E 135°17'0 0.0
2017-May-24 15:30N 34°42' E 135°17'0 0.0
2017-May-24 14:54N 34°42' E 135°17'0 0.0
2017-May-24 14:24N 34°42' E 135°17'0 0.0
2017-May-24 13:30N 34°42' E 135°17'0 0.0
2017-May-24 13:00N 34°42' E 135°17'0 0.0
2017-May-24 12:24N 34°42' E 135°17'0 0.0
2017-May-24 11:54N 34°42' E 135°17'0 0.0
2017-May-24 11:30N 34°42' E 135°17'0 0.0
2017-May-24 10:48N 34°42' E 135°17'0 0.0
2017-May-24 10:24N 34°42' E 135°17'0 0.0
2017-May-24 10:00N 34°42' E 135°17'0 0.0
2017-May-24 09:30N 34°42' E 135°17'0 0.0
2017-May-24 09:00N 34°42' E 135°17'0 0.0
2017-May-24 08:30N 34°42' E 135°17'0 0.0
2017-May-24 08:00N 34°42' E 135°17'0 0.0
2017-May-24 07:30N 34°42' E 135°17'0 0.0
2017-May-24 07:00N 34°42' E 135°17'0 0.0
2017-May-24 06:30N 34°42' E 135°17'0 0.0
2017-May-24 06:00N 34°42' E 135°17'0 0.0
2017-May-24 05:24N 34°42' E 135°17'0 0.0
2017-May-24 04:48N 34°42' E 135°17'0 0.0
2017-May-24 04:30N 34°42' E 135°17'0 0.0
2017-May-24 04:00N 34°42' E 135°17'0 0.0
2017-May-24 03:30N 34°42' E 135°17'0 0.0
2017-May-24 03:00N 34°42' E 135°17'0 0.0
2017-May-24 02:24N 34°42' E 135°17'0 0.0
2017-May-24 02:00N 34°42' E 135°17'0 0.0
2017-May-24 01:30N 34°42' E 135°17'0 0.3
2017-May-24 01:00N 34°41' E 135°17'3 5.0
2017-May-24 00:30N 34°39' E 135°18'510.1
2017-May-24 00:00N 34°35' E 135°15'611.8
2017-May-23 23:31N 34°31' E 135°11'815.7
2017-May-23 23:01N 34°25' E 135°05'917.0
2017-May-23 22:31N 34°17' E 134°59'713.1
2017-May-23 22:00N 34°11' E 134°60'4 8.1
2017-May-23 21:30N 34°07' E 134°59'4 8.9
2017-May-23 21:00N 34°02' E 134°58'611.3
2017-May-23 20:29N 33°57' E 134°57'  
2017-May-16 12:22N 34°53' E 140°14'2611.6
2017-May-16 10:06N 34°57' E 139°42'813.7
2017-May-16 09:30N 35°05' E 139°43'613.3
2017-May-16 09:00N 35°11' E 139°46'5 9.3
2017-May-16 08:30N 35°16' E 139°46'611.9
2017-May-16 08:00N 35°21' E 139°42'713.6
2017-May-16 07:31N 35°27' E 139°47'715.0
2017-May-16 07:01N 35°31' E 139°54'714.3
2017-May-16 06:30N 35°35' E 140°02'3 5.7
2017-May-16 05:59N 35°36' E 140°06'0 0.0
2017-May-16 05:29N 35°36' E 140°06'0 0.0
2017-May-16 04:56N 35°36' E 140°06'0 0.0
2017-May-16 04:26N 35°36' E 140°06'0 0.0
2017-May-16 03:59N 35°36' E 140°06'0 0.0
2017-May-16 03:29N 35°36' E 140°06'0 0.0
2017-May-16 02:59N 35°36' E 140°06'0 0.0
2017-May-16 02:26N 35°36' E 140°06'0 0.0
2017-May-16 01:56N 35°36' E 140°06'0 0.0
2017-May-16 01:29N 35°36' E 140°06'0 0.0
2017-May-16 00:44N 35°36' E 140°06'0 0.0
2017-May-16 00:29N 35°36' E 140°06'0 0.0
2017-May-15 23:53N 35°36' E 140°06'0 0.0
2017-May-15 23:26N 35°36' E 140°06'0 0.0
2017-May-15 22:56N 35°36' E 140°06'0 0.4
2017-May-15 22:30N 35°36' E 140°06'2 3.3
2017-May-15 22:00N 35°35' E 140°04'5 9.7
2017-May-15 21:30N 35°33' E 139°58'611.1
2017-May-15 21:00N 35°29' E 139°53'612.7
2017-May-15 20:30N 35°25' E 139°47'612.3
2017-May-15 20:00N 35°20' E 139°44'611.5
2017-May-15 19:30N 35°14' E 139°47'510.3
2017-May-15 19:00N 35°09' E 139°47'4 7.6
2017-May-15 18:30N 35°05' E 139°46'510.9
2017-May-15 18:00N 35°00' E 139°43'815.3
2017-May-15 17:31N 34°53' E 139°42'914.2
2017-May-15 16:54N 34°50' E 139°52'716.1
2017-May-15 16:29N 34°51' E 139°60'1016.1
2017-May-15 15:51N 34°54' E 140°12'  

Dump ship's entire track history